Time;durP1;ratioP1;P1;durP2;ratioP2;P2;SDS_P1;SDS_P2;PMS_P1;PMS_P2;Temp;Humidity;BMP_temperature;BMP_pressure;BME280_temperature;BME280_humidity;BME280_pressure;Samples;Min_cycle;Max_cycle;Signal;HPM_P1;HPM_P2
2021/01/13 00:00:21;;;;;;;15.43;8.30;;;;;;;-1.05;67.34;99064.54;1749876;79;21170;-59
2021/01/13 00:02:48;;;;;;;16.80;9.10;;;;;;;-1.06;67.45;99064.11;1778671;78;21297;-59
2021/01/13 00:05:16;;;;;;;19.60;10.03;;;;;;;-1.06;67.45;99060.15;1779162;78;21653;-59
2021/01/13 00:07:44;;;;;;;18.77;9.83;;;;;;;-1.05;67.45;99058.38;1773918;78;22314;-58
2021/01/13 00:10:12;;;;;;;19.83;10.33;;;;;;;-1.05;67.45;99050.45;1777452;78;21671;-57
2021/01/13 00:12:39;;;;;;;16.53;9.17;;;;;;;-1.06;67.40;99049.58;1777079;78;21174;-57
2021/01/13 00:15:08;;;;;;;19.87;10.43;;;;;;;-1.07;67.53;99049.15;1773804;78;21712;-58
2021/01/13 00:17:35;;;;;;;21.73;11.90;;;;;;;-1.06;67.55;99046.94;1782225;78;20942;-57
2021/01/13 00:20:06;;;;;;;23.77;11.63;;;;;;;-1.07;67.55;99039.91;1780783;78;21268;-57
2021/01/13 00:22:33;;;;;;;17.70;10.40;;;;;;;-1.04;67.60;99037.23;1773613;78;21228;-58
2021/01/13 00:25:00;;;;;;;24.60;12.67;;;;;;;-1.04;67.57;99027.12;1781393;78;20981;-58
2021/01/13 00:27:28;;;;;;;19.50;10.43;;;;;;;-1.03;67.53;99028.42;1777459;78;21418;-56
2021/01/13 00:29:55;;;;;;;17.97;10.20;;;;;;;-1.03;67.45;99020.50;1743923;80;21785;-57
2021/01/13 00:32:22;;;;;;;19.90;10.27;;;;;;;-1.04;67.51;99017.42;1778024;78;21253;-59
2021/01/13 00:34:50;;;;;;;15.87;8.73;;;;;;;-1.04;67.58;99014.78;1745200;80;21620;-58
2021/01/13 00:37:18;;;;;;;21.40;12.10;;;;;;;-1.02;67.46;99010.81;1778223;78;21194;-59
2021/01/13 00:39:45;;;;;;;19.03;10.80;;;;;;;-1.03;67.40;99007.73;1776782;78;21118;-58
2021/01/13 00:42:12;;;;;;;19.47;11.43;;;;;;;-1.05;67.55;99008.20;1775946;78;21198;-58
2021/01/13 00:44:39;;;;;;;18.33;11.37;;;;;;;-1.05;67.60;98999.83;1748647;80;21686;-58
2021/01/13 00:47:07;;;;;;;22.80;11.20;;;;;;;-1.04;67.57;98995.42;1778825;78;21545;-58
2021/01/13 00:49:34;;;;;;;25.83;13.20;;;;;;;-1.04;67.57;99005.98;1781874;78;21147;-58
2021/01/13 00:52:02;;;;;;;23.67;12.90;;;;;;;-1.03;67.65;98999.81;1784926;78;21431;-57
2021/01/13 00:54:29;;;;;;;24.50;13.73;;;;;;;-1.02;67.56;99001.56;1774525;78;21579;-58
2021/01/13 00:56:57;;;;;;;21.83;12.30;;;;;;;-1.03;67.57;98998.05;1781706;78;21524;-59
2021/01/13 00:59:24;;;;;;;21.97;12.60;;;;;;;-1.02;67.64;98993.64;1781731;78;21124;-58
2021/01/13 01:01:51;;;;;;;24.50;12.30;;;;;;;-1.00;67.69;98986.54;1779831;78;21597;-57
2021/01/13 01:04:19;;;;;;;22.87;11.87;;;;;;;-0.99;67.64;98989.16;1777813;78;21901;-56
2021/01/13 01:06:48;;;;;;;24.17;13.60;;;;;;;-1.00;67.62;98987.41;1775973;78;21103;-60
2021/01/13 01:09:16;;;;;;;22.70;11.50;;;;;;;-0.99;67.56;98986.52;1778230;78;22467;-59
2021/01/13 01:11:44;;;;;;;22.93;12.10;;;;;;;-0.99;67.67;98985.65;1779171;78;21593;-57
2021/01/13 01:14:12;;;;;;;24.63;13.13;;;;;;;-1.00;67.69;98986.54;1783050;78;21146;-56
2021/01/13 01:16:41;;;;;;;23.07;12.23;;;;;;;-1.01;67.77;98985.66;1776286;78;21522;-58
2021/01/13 01:19:09;;;;;;;28.07;13.23;;;;;;;-1.01;67.71;98991.39;1755182;80;21092;-58
2021/01/13 01:21:43;;;;;;;23.33;13.80;;;;;;;-1.02;67.81;98992.31;1780800;78;22598;-59
2021/01/13 01:24:10;;;;;;;21.65;11.48;;;;;;;-1.03;67.86;98977.36;1777563;78;21148;-59
2021/01/13 01:26:48;;;;;;;23.00;12.60;;;;;;;-1.03;67.88;98967.67;1776855;78;21443;-57
2021/01/13 01:29:15;;;;;;;25.33;13.17;;;;;;;-1.03;68.01;98957.55;1780788;78;21665;-59
2021/01/13 01:31:49;;;;;;;24.80;13.20;;;;;;;-1.03;67.97;98955.78;1747336;80;21106;-58
2021/01/13 01:34:16;;;;;;;27.70;15.13;;;;;;;-1.03;67.96;98950.50;1760800;80;21206;-58
2021/01/13 01:36:44;;;;;;;24.50;14.30;;;;;;;-1.03;68.01;98941.26;1779676;78;21102;-61
2021/01/13 01:39:12;;;;;;;25.13;14.67;;;;;;;-1.04;67.96;98927.63;1777265;78;21155;-57
2021/01/13 01:41:43;;;;;;;29.57;16.83;;;;;;;-1.05;68.00;98927.64;1781014;78;21592;-58
2021/01/13 01:46:31;;;;;;;26.17;15.40;;;;;;;-1.01;68.09;98933.28;1792970;77;28167;-59
2021/01/13 01:48:59;;;;;;;25.80;14.37;;;;;;;-1.05;68.20;98948.77;1770172;79;21195;-58
2021/01/13 01:51:33;;;;;;;28.63;14.93;;;;;;;-1.04;68.19;98944.79;1731819;81;21364;-58
2021/01/13 01:54:15;;;;;;;25.55;14.30;;;;;;;-1.03;68.26;98937.74;1732733;81;21065;-58
2021/01/13 01:56:44;;;;;;;26.10;14.90;;;;;;;-1.02;68.22;98934.20;1711173;81;22019;-56
2021/01/13 01:59:13;;;;;;;27.87;14.07;;;;;;;-1.04;68.25;98929.39;1711752;81;20989;-56
2021/01/13 02:01:45;;;;;;;22.20;12.47;;;;;;;-1.04;68.24;98928.06;1710521;83;21167;-57
2021/01/13 02:04:29;;;;;;;25.23;11.70;;;;;;;-1.06;68.33;98912.23;1714820;81;22354;-58
2021/01/13 02:07:14;;;;;;;19.30;9.57;;;;;;;-1.07;68.41;98903.01;1707475;81;21218;-56
2021/01/13 02:09:42;;;;;;;14.27;6.70;;;;;;;-1.05;68.53;98893.30;1715049;81;21217;-56
2021/01/13 02:12:12;;;;;;;9.23;6.20;;;;;;;-1.04;68.44;98899.02;1704664;83;21665;-57
2021/01/13 02:14:42;;;;;;;8.73;4.83;;;;;;;-1.05;68.41;98899.91;1711074;81;21250;-57
2021/01/13 02:17:11;;;;;;;6.60;4.30;;;;;;;-1.06;68.24;98896.39;1704265;83;22061;-56
2021/01/13 02:20:04;;;;;;;7.10;4.07;;;;;;;-1.08;68.21;98892.02;1709594;81;21163;-56
2021/01/13 02:22:39;;;;;;;7.70;4.43;;;;;;;-1.11;68.16;98897.36;1713460;81;21478;-56
2021/01/13 02:25:19;;;;;;;7.00;4.13;;;;;;;-1.18;68.18;98888.64;1700425;83;21193;-56
2021/01/13 02:28:04;;;;;;;7.20;3.60;;;;;;;-1.20;68.33;98883.85;1711717;81;21176;-56
2021/01/13 02:30:37;;;;;;;;;;;;;;;-1.19;68.41;98880.28;1719022;81;21522;-57
2021/01/13 02:33:16;;;;;;;7.37;3.07;;;;;;;-1.18;68.52;98878.95;1705074;81;20317;-57
2021/01/13 02:36:21;;;;;;;6.40;3.00;;;;;;;-1.17;68.49;98872.78;1683140;82;21712;-57
2021/01/13 02:38:52;;;;;;;6.77;3.00;;;;;;;-1.15;68.42;98872.76;1709330;83;21194;-58
2021/01/13 02:41:22;;;;;;;5.77;3.57;;;;;;;-1.19;68.28;98867.08;1704266;81;21220;-57
2021/01/13 02:44:07;;;;;;;9.17;4.00;;;;;;;-1.21;68.21;98857.89;1686003;83;22623;-56
2021/01/13 02:46:58;;;;;;;6.60;2.65;;;;;;;-1.22;68.16;98847.34;1653047;83;21571;-57
2021/01/13 02:49:28;;;;;;;6.67;3.93;;;;;;;-1.24;68.15;98839.89;1672090;84;21110;-56
2021/01/13 02:52:00;;;;;;;11.43;4.53;;;;;;;-1.25;68.09;98850.90;1644009;84;21240;-56
2021/01/13 02:54:34;;;;;;;8.93;5.03;;;;;;;-1.25;67.97;98853.98;1633440;85;21214;-56
2021/01/13 02:57:22;;;;;;;9.00;5.17;;;;;;;-1.28;67.96;98855.38;1663653;84;21227;-57
2021/01/13 02:59:49;;;;;;;7.50;4.43;;;;;;;-1.31;67.97;98847.48;1654981;84;21254;-57
2021/01/13 03:02:17;;;;;;;6.87;5.27;;;;;;;-1.31;67.81;98851.45;1657979;84;21681;-57
2021/01/13 03:04:45;;;;;;;7.73;4.47;;;;;;;-1.33;67.66;98850.59;1664543;85;21163;-57
2021/01/13 03:07:16;;;;;;;9.63;5.37;;;;;;;-1.38;67.50;98845.84;1663422;84;21128;-57
2021/01/13 03:09:47;;;;;;;9.60;5.20;;;;;;;-1.41;67.46;98848.52;1705316;83;21494;-56
2021/01/13 03:12:21;;;;;;;10.77;4.43;;;;;;;-1.43;67.43;98853.81;1703350;82;22011;-57
2021/01/13 03:14:53;;;;;;;6.97;4.85;;;;;;;-1.43;67.16;98843.70;1703727;83;21506;-57
2021/01/13 03:17:38;;;;;;;8.33;4.27;;;;;;;-1.46;67.12;98847.72;1703951;82;21198;-57
2021/01/13 03:20:33;;;;;;;11.50;5.10;;;;;;;-1.48;67.12;98852.14;1705772;82;21147;-57
2021/01/13 03:23:27;;;;;;;8.33;4.63;;;;;;;-1.52;67.17;98842.94;1706013;83;21296;-57
2021/01/13 03:26:01;;;;;;;7.83;5.17;;;;;;;-1.53;67.27;98833.27;1681320;82;21168;-57
2021/01/13 03:28:33;;;;;;;9.55;4.42;;;;;;;-1.52;67.26;98832.38;1704665;82;21178;-56
2021/01/13 03:31:01;;;;;;;7.67;4.63;;;;;;;-1.53;67.12;98817.44;1706344;83;21414;-57
2021/01/13 03:34:23;;;;;;;10.33;5.53;;;;;;;-1.53;67.05;98824.48;1704738;83;21379;-57
2021/01/13 03:37:24;;;;;;;7.90;4.27;;;;;;;-1.55;67.08;98817.05;1703862;83;21230;-57
2021/01/13 03:39:52;;;;;;;4.90;3.47;;;;;;;-1.54;67.04;98821.00;1685057;83;21134;-57
2021/01/13 03:42:21;;;;;;;5.97;3.47;;;;;;;-1.55;66.84;98821.02;1676955;83;21147;-57
2021/01/13 03:44:49;;;;;;;9.70;4.20;;;;;;;-1.57;66.93;98809.16;1707159;82;21135;-57
2021/01/13 03:47:34;;;;;;;8.40;5.07;;;;;;;-1.56;67.03;98802.98;1733428;80;21163;-57
2021/01/13 03:50:19;;;;;;;13.93;5.83;;;;;;;-1.56;67.07;98806.08;1730176;81;21689;-57
2021/01/13 03:52:56;;;;;;;14.83;6.13;;;;;;;-1.54;66.93;98801.20;1735817;80;21132;-57
2021/01/13 03:55:27;;;;;;;10.37;5.43;;;;;;;-1.55;66.79;98791.98;1737316;81;21554;-57
2021/01/13 03:58:30;;;;;;;10.70;5.00;;;;;;;-1.55;66.75;98791.98;1729675;80;21134;-57
2021/01/13 04:01:03;;;;;;;11.00;4.87;;;;;;;-1.57;66.86;98785.41;1734832;81;21618;-57
2021/01/13 04:03:35;;;;;;;17.67;5.33;;;;;;;-1.59;66.77;98784.55;1736758;80;21653;-57
2021/01/13 04:06:11;;;;;;;14.03;6.00;;;;;;;-1.62;66.72;98776.70;1736664;80;21188;-57
2021/01/13 04:08:45;;;;;;;12.70;6.00;;;;;;;-1.63;66.62;98764.84;1736434;81;21152;-57
2021/01/13 04:11:21;;;;;;;12.00;5.15;;;;;;;-1.65;66.57;98762.22;1736850;81;22244;-57
2021/01/13 04:13:53;;;;;;;7.57;4.77;;;;;;;-1.67;66.58;98760.05;1734481;80;21119;-57
2021/01/13 04:16:22;;;;;;;13.43;6.63;;;;;;;-1.68;66.52;98753.02;1737426;80;21905;-57
2021/01/13 04:18:51;;;;;;;9.57;5.03;;;;;;;-1.70;66.73;98761.88;1738215;81;21638;-61
2021/01/13 04:21:19;;;;;;;11.00;5.33;;;;;;;-1.69;66.76;98766.23;1734608;80;21140;-57
2021/01/13 04:23:47;;;;;;;7.30;5.17;;;;;;;-1.68;66.70;98775.89;1736451;80;21150;-57
2021/01/13 04:26:15;;;;;;;9.77;4.70;;;;;;;-1.72;66.60;98773.77;1737486;80;21519;-57
2021/01/13 04:28:43;;;;;;;10.10;4.10;;;;;;;-1.73;66.80;98771.15;1733868;80;21615;-57
2021/01/13 04:31:11;;;;;;;8.27;4.17;;;;;;;-1.73;66.86;98769.83;1732299;81;21104;-57
2021/01/13 04:33:38;;;;;;;10.07;5.57;;;;;;;-1.71;66.90;98771.56;1733231;80;21139;-57
2021/01/13 04:36:07;;;;;;;9.70;5.33;;;;;;;-1.68;66.88;98771.94;1736994;80;21456;-56
2021/01/13 04:38:35;;;;;;;7.03;4.63;;;;;;;-1.66;66.87;98768.39;1736835;81;21156;-57
2021/01/13 04:41:11;;;;;;;11.97;4.77;;;;;;;-1.66;66.85;98772.34;1700675;82;21443;-57
2021/01/13 04:43:55;;;;;;;7.70;4.40;;;;;;;-1.66;66.74;98762.23;1734336;80;21125;-57
2021/01/13 04:46:38;;;;;;;13.30;5.17;;;;;;;-1.66;66.78;98764.43;1736945;80;21119;-57
2021/01/13 04:49:12;;;;;;;6.17;4.40;;;;;;;-1.64;66.75;98756.05;1742079;80;21116;-57
2021/01/13 04:51:42;;;;;;;8.67;5.10;;;;;;;-1.63;66.71;98748.56;1739393;80;21227;-57
2021/01/13 04:54:15;;;;;;;7.90;4.40;;;;;;;-1.62;66.68;98750.76;1743024;80;21522;-57
2021/01/13 04:57:09;;;;;;;10.97;4.70;;;;;;;-1.63;66.67;98739.77;1678062;84;21156;-57
2021/01/13 05:00:09;;;;;;;10.63;5.27;;;;;;;-1.65;66.61;98742.87;1743566;81;21136;-57
2021/01/13 05:02:48;;;;;;;8.03;4.67;;;;;;;-1.64;66.62;98747.27;1745242;80;21115;-57
2021/01/13 05:05:20;;;;;;;10.47;4.83;;;;;;;-1.64;66.65;98742.86;1724972;80;21122;-57
2021/01/13 05:08:28;;;;;;;9.97;6.30;;;;;;;-1.64;66.77;98739.34;1740720;80;21758;-57
2021/01/13 05:11:04;;;;;;;11.73;6.33;;;;;;;-1.63;66.85;98735.82;1743843;80;21158;-57
2021/01/13 05:13:33;;;;;;;12.85;6.67;;;;;;;-1.64;66.79;98728.34;1743128;81;22092;-57
2021/01/13 05:16:04;;;;;;;12.83;7.97;;;;;;;-1.63;66.90;98727.45;1741144;80;21250;-57
2021/01/13 05:18:55;;;;;;;13.97;7.23;;;;;;;-1.65;66.83;98723.96;1712160;81;21760;-57
2021/01/13 05:21:25;;;;;;;12.27;7.60;;;;;;;-1.65;66.83;98725.73;1744609;80;23537;-57
2021/01/13 05:23:55;;;;;;;14.43;8.07;;;;;;;-1.70;66.95;98721.83;1742364;80;21151;-57
2021/01/13 05:26:27;;;;;;;14.47;7.90;;;;;;;-1.71;66.93;98720.11;1740219;80;21638;-57
2021/01/13 05:29:08;;;;;;;11.30;6.73;;;;;;;-1.70;66.91;98722.30;1739796;80;21792;-57
2021/01/13 05:31:36;;;;;;;12.50;7.70;;;;;;;-1.70;66.89;98707.80;1712498;81;21126;-57
2021/01/13 05:34:04;;;;;;;15.07;8.60;;;;;;;-1.72;66.96;98710.45;1739662;80;21942;-57
2021/01/13 05:36:32;;;;;;;18.17;9.00;;;;;;;-1.72;66.99;98718.36;1742131;80;21147;-57
2021/01/13 05:39:10;;;;;;;12.53;7.33;;;;;;;-1.75;67.07;98710.48;1740629;80;21790;-57
2021/01/13 05:41:39;;;;;;;10.30;5.80;;;;;;;-1.75;67.12;98706.97;1745036;80;21555;-58
2021/01/13 05:44:08;;;;;;;10.27;6.80;;;;;;;-1.74;67.15;98709.59;1747446;80;21084;-58
2021/01/13 05:46:45;;;;;;;13.57;7.27;;;;;;;-1.73;67.18;98709.14;1740261;80;21215;-56
2021/01/13 05:49:13;;;;;;;9.67;6.40;;;;;;;-1.71;67.22;98715.28;1736670;81;21021;-56
2021/01/13 05:51:41;;;;;;;10.10;6.40;;;;;;;-1.69;67.09;98717.42;1700154;82;21132;-56
2021/01/13 05:54:16;;;;;;;11.27;6.77;;;;;;;-1.69;67.10;98714.78;1735057;81;21109;-56
2021/01/13 05:56:46;;;;;;;11.73;7.03;;;;;;;-1.69;67.07;98714.34;1735228;80;21200;-56
2021/01/13 05:59:14;;;;;;;10.87;7.00;;;;;;;-1.68;67.00;98717.41;1733697;81;21764;-56
2021/01/13 06:02:03;;;;;;;11.93;6.80;;;;;;;-1.70;67.07;98712.59;1737384;81;21219;-55
2021/01/13 06:04:31;;;;;;;12.93;6.93;;;;;;;-1.71;67.18;98708.23;1731218;80;21057;-55
2021/01/13 06:07:05;;;;;;;12.03;6.90;;;;;;;-1.69;67.19;98713.47;1708128;81;21251;-55
2021/01/13 06:09:55;;;;;;;;;;;;;;;-1.70;67.29;98715.23;1737402;81;21171;-55
2021/01/13 06:12:23;;;;;;;9.63;6.23;;;;;;;-1.68;67.29;98710.81;1715341;81;21464;-57
2021/01/13 06:14:53;;;;;;;11.90;6.87;;;;;;;-1.67;67.40;98710.36;1694498;81;21393;-57
2021/01/13 06:17:27;;;;;;;15.07;7.47;;;;;;;-1.71;67.34;98707.36;1675313;84;21434;-57
2021/01/13 06:19:57;;;;;;;12.67;7.60;;;;;;;-1.71;67.48;98713.52;1719841;81;21187;-57
2021/01/13 06:22:32;;;;;;;12.83;6.80;;;;;;;-1.71;67.60;98707.36;1692833;83;21648;-57
2021/01/13 06:25:04;;;;;;;13.13;7.63;;;;;;;-1.68;67.56;98710.81;1723842;81;22705;-57
2021/01/13 06:27:59;;;;;;;11.60;7.17;;;;;;;-1.67;67.64;98706.41;1730201;81;21657;-57
2021/01/13 06:30:30;;;;;;;11.17;7.40;;;;;;;-1.66;67.66;98712.98;1728696;81;21127;-57
2021/01/13 06:33:08;;;;;;;14.77;7.40;;;;;;;-1.64;67.70;98708.56;1723510;81;21507;-57
2021/01/13 06:35:46;;;;;;;14.43;7.73;;;;;;;-1.62;67.70;98705.90;1729292;81;21089;-57
2021/01/13 06:38:20;;;;;;;15.00;8.13;;;;;;;-1.59;67.69;98700.11;1725762;81;21709;-57
2021/01/13 06:41:02;;;;;;;13.88;6.67;;;;;;;-1.58;67.64;98693.94;1726012;81;26982;-57
2021/01/13 06:43:30;;;;;;;9.40;5.33;;;;;;;-1.58;67.60;98688.66;1698237;82;21127;-57
2021/01/13 06:45:57;;;;;;;11.17;6.50;;;;;;;-1.60;67.63;98683.84;1701545;82;21104;-57
2021/01/13 06:48:29;;;;;;;15.83;8.13;;;;;;;-1.59;67.74;98686.03;1702554;82;21507;-57
2021/01/13 06:51:00;;;;;;;9.53;6.00;;;;;;;-1.58;67.87;98685.14;1705767;82;22330;-57
2021/01/13 06:53:34;;;;;;;12.87;7.23;;;;;;;-1.59;67.80;98679.44;1700732;82;21686;-56
2021/01/13 06:56:13;;;;;;;9.68;6.28;;;;;;;-1.64;67.79;98680.85;1713107;82;21130;-57
2021/01/13 06:58:57;;;;;;;13.07;7.93;;;;;;;-1.64;67.79;98683.49;1703933;82;21150;-57
2021/01/13 07:01:25;;;;;;;13.10;6.37;;;;;;;-1.64;67.72;98680.85;1700975;82;21921;-57
2021/01/13 07:04:05;;;;;;;14.77;6.93;;;;;;;-1.62;67.59;98680.39;1699878;82;22296;-57
2021/01/13 07:06:32;;;;;;;10.33;5.93;;;;;;;-1.65;67.54;98680.88;1700413;82;21128;-57
2021/01/13 07:08:59;;;;;;;16.73;5.83;;;;;;;-1.68;67.58;98684.42;1700707;82;21147;-57
2021/01/13 07:11:28;;;;;;;11.40;7.23;;;;;;;-1.68;67.66;98683.10;1662712;82;21126;-57
2021/01/13 07:13:58;;;;;;;14.83;7.17;;;;;;;-1.67;67.67;98684.84;1695366;82;21207;-57
2021/01/13 07:16:29;;;;;;;19.30;8.83;;;;;;;-1.65;67.57;98671.19;1661215;84;21846;-57
2021/01/13 07:18:58;;;;;;;19.77;9.67;;;;;;;-1.60;67.51;98676.38;1661797;85;21135;-57
2021/01/13 07:21:40;;;;;;;21.33;9.10;;;;;;;-1.59;67.53;98671.08;1666454;84;21142;-57
2021/01/13 07:24:15;;;;;;;19.70;9.27;;;;;;;-1.61;67.49;98674.19;1665225;84;21135;-56
2021/01/13 07:26:49;;;;;;;12.03;6.90;;;;;;;-1.62;67.58;98672.47;1868257;74;27344;-57
2021/01/13 07:29:17;;;;;;;11.70;8.03;;;;;;;-1.65;67.52;98673.83;1837748;75;21182;-57
2021/01/13 07:31:44;;;;;;;15.83;8.53;;;;;;;-1.62;67.45;98676.43;1844614;75;21368;-57
2021/01/13 07:34:20;;;;;;;12.73;8.10;;;;;;;-1.60;67.46;98663.18;1840822;75;21051;-57
2021/01/13 07:36:50;;;;;;;15.70;8.17;;;;;;;-1.59;67.37;98657.88;1837507;75;21198;-57
2021/01/13 07:39:17;;;;;;;14.50;9.00;;;;;;;-1.58;67.40;98657.44;1847446;75;21103;-57
2021/01/13 07:42:14;;;;;;;16.97;10.47;;;;;;;-1.55;67.55;98656.08;1836401;75;21072;-57
2021/01/13 07:44:45;;;;;;;18.30;10.53;;;;;;;-1.52;67.46;98654.69;1810234;77;21476;-57
2021/01/13 07:47:23;;;;;;;19.00;9.43;;;;;;;-1.49;67.31;98650.69;1825107;77;21003;-57
2021/01/13 07:50:07;;;;;;;16.27;9.23;;;;;;;-1.52;67.42;98634.89;1830965;76;21234;-56
2021/01/13 07:52:48;;;;;;;14.23;9.40;;;;;;;-1.49;67.34;98637.93;1827177;77;21171;-56
2021/01/13 07:55:21;;;;;;;15.67;8.50;;;;;;;-1.50;67.34;98628.27;1772011;79;21230;-57
2021/01/13 07:57:53;;;;;;;17.93;8.63;;;;;;;-1.49;67.33;98623.42;1769244;80;21373;-57
2021/01/13 08:00:28;;;;;;;17.53;9.07;;;;;;;-1.47;67.40;98616.35;1762023;80;21203;-58
2021/01/13 08:03:32;;;;;;;;;;;;;;;-1.46;67.30;98611.50;1762282;80;21209;-56
2021/01/13 08:06:34;;;;;;;17.20;10.00;;;;;;;-1.46;67.22;98607.54;1753738;80;21274;-57
2021/01/13 08:09:11;;;;;;;19.20;10.97;;;;;;;-1.53;67.44;98614.67;1775204;80;21262;-57
2021/01/13 08:12:03;;;;;;;14.47;8.87;;;;;;;-1.58;67.36;98607.30;1762204;80;22083;-57
2021/01/13 08:14:54;;;;;;;21.47;10.33;;;;;;;-1.63;67.52;98595.52;1795446;78;21147;-57
2021/01/13 08:18:01;;;;;;;20.33;10.67;;;;;;;-1.66;67.61;98601.29;1790021;78;21225;-57
2021/01/13 08:21:13;;;;;;;22.90;11.30;;;;;;;-1.64;67.70;98591.59;1777592;79;21604;-58
2021/01/13 08:23:41;;;;;;;19.37;11.00;;;;;;;-1.60;67.59;98596.77;1763948;80;21203;-57
2021/01/13 08:26:08;;;;;;;18.97;9.97;;;;;;;-1.66;67.72;98594.25;1793538;78;21426;-58
2021/01/13 08:28:38;;;;;;;25.77;12.17;;;;;;;-1.64;67.86;98592.91;1772199;78;21141;-57
2021/01/13 08:31:06;;;;;;;17.70;9.80;;;;;;;-1.58;67.80;98590.15;1763320;80;21818;-58
2021/01/13 08:33:37;;;;;;;19.57;10.60;;;;;;;-1.49;67.60;98583.83;1759415;80;21215;-58
2021/01/13 08:36:11;;;;;;;23.70;12.87;;;;;;;-1.44;67.50;98580.64;1766553;80;21554;-58
2021/01/13 08:39:14;;;;;;;24.80;12.97;;;;;;;-1.37;67.44;98583.61;1791221;78;22052;-58
2021/01/13 08:41:44;;;;;;;20.80;11.67;;;;;;;-1.32;67.30;98579.97;1767691;80;21231;-58
2021/01/13 08:44:16;;;;;;;20.33;12.07;;;;;;;-1.27;67.20;98584.70;1759889;80;21202;-58
2021/01/13 08:47:02;;;;;;;26.60;11.77;;;;;;;-1.31;66.80;98583.04;1761341;80;21234;-58
2021/01/13 08:49:31;;;;;;;20.60;11.87;;;;;;;-1.36;66.99;98573.48;1761349;80;21246;-58
2021/01/13 08:52:14;;;;;;;26.47;13.43;;;;;;;-1.36;67.05;98570.36;1790709;78;21209;-58
2021/01/13 08:55:02;;;;;;;28.93;14.63;;;;;;;-1.41;67.06;98573.55;1791850;78;21214;-58
2021/01/13 08:57:54;;;;;;;25.57;13.33;;;;;;;-1.47;67.06;98563.12;1795911;78;21472;-58
2021/01/13 09:00:23;;;;;;;26.67;13.17;;;;;;;-1.50;67.29;98557.89;1793325;78;21784;-58
2021/01/13 09:03:14;;;;;;;27.13;13.73;;;;;;;-1.44;67.33;98560.84;1792760;78;21165;-58
2021/01/13 09:05:42;;;;;;;23.13;12.00;;;;;;;-1.39;67.31;98544.49;1761914;80;22126;-58
2021/01/13 09:08:10;;;;;;;25.73;13.50;;;;;;;-1.41;67.19;98543.64;1790927;78;21597;-58
2021/01/13 09:10:50;;;;;;;30.90;14.10;;;;;;;-1.39;67.25;98534.80;1791307;78;21048;-58
2021/01/13 09:13:39;;;;;;;19.50;12.37;;;;;;;-1.32;67.22;98540.38;1802483;78;21190;-58
2021/01/13 09:16:32;;;;;;;25.07;14.10;;;;;;;-1.28;67.08;98535.47;1794830;78;21599;-58
2021/01/13 09:19:04;;;;;;;26.20;14.37;;;;;;;-1.24;67.05;98533.62;1795090;78;23602;-58
2021/01/13 09:21:35;;;;;;;31.53;16.93;;;;;;;-1.21;66.98;98519.05;1796184;78;21618;-58
2021/01/13 09:24:03;;;;;;;26.90;15.30;;;;;;;-1.12;66.99;98521.50;1792199;78;21854;-58
2021/01/13 09:26:37;;;;;;;30.00;15.63;;;;;;;-1.00;66.67;98505.81;1788928;78;21587;-58
2021/01/13 09:29:09;;;;;;;;;;;;;;;-0.91;66.38;98499.88;1799715;78;21644;-59
2021/01/13 09:31:38;;;;;;;29.30;14.63;;;;;;;-0.88;65.90;98510.39;1796257;78;21206;-59
2021/01/13 09:34:07;;;;;;;25.40;13.80;;;;;;;-0.94;66.02;98509.22;1776060;79;21037;-59
2021/01/13 09:36:58;;;;;;;23.40;13.03;;;;;;;-0.94;66.04;98510.53;1770950;80;21219;-59
2021/01/13 09:39:38;;;;;;;28.40;15.13;;;;;;;-0.93;65.98;98509.61;1765921;80;21632;-59
2021/01/13 09:42:07;;;;;;;30.50;14.77;;;;;;;-0.98;65.77;98520.73;1789423;78;21091;-58
2021/01/13 09:44:36;;;;;;;38.77;17.73;;;;;;;-1.05;66.06;98517.81;1767016;80;21522;-58
2021/01/13 09:47:24;;;;;;;33.17;17.50;;;;;;;-1.10;66.02;98513.06;1763851;80;21174;-58
2021/01/13 09:52:43;;;;;;;34.27;16.87;;;;;;;-1.10;66.29;98512.19;1877813;75;27331;-57
2021/01/13 09:55:12;;;;;;;32.67;17.40;;;;;;;-1.15;66.18;98509.22;1840332;75;20937;-59
2021/01/13 09:57:39;;;;;;;38.07;17.63;;;;;;;-1.18;66.25;98503.11;1845856;76;22277;-60
2021/01/13 10:00:15;;;;;;;37.80;18.80;;;;;;;-1.21;66.36;98500.56;1842265;77;20936;-59
2021/01/13 10:02:48;;;;;;;37.37;17.73;;;;;;;-1.24;66.48;98489.61;1839081;77;21128;-59
2021/01/13 10:05:16;;;;;;;26.23;11.90;;;;;;;-1.23;66.37;98486.06;1801374;78;21095;-59
2021/01/13 10:07:45;;;;;;;30.10;15.10;;;;;;;-1.23;66.36;98482.55;1776044;79;20994;-60
2021/01/13 10:10:15;;;;;;;32.03;14.20;;;;;;;-1.25;66.29;98475.11;1741978;78;21375;-59
2021/01/13 10:15:20;;;;;;;28.67;15.37;;;;;;;-1.29;66.49;98466.41;1824826;76;26847;-59
2021/01/13 10:17:48;;;;;;;34.20;16.20;;;;;;;-1.37;66.45;98464.83;1776019;79;21588;-59
2021/01/13 10:20:19;;;;;;;27.30;14.20;;;;;;;-1.41;66.53;98466.65;1793541;79;21806;-59
2021/01/13 10:22:47;;;;;;;25.67;13.97;;;;;;;-1.47;66.74;98466.78;1794621;77;20937;-59
2021/01/13 10:25:29;;;;;;;32.33;15.37;;;;;;;-1.50;66.86;98462.88;1791879;77;20984;-59
2021/01/13 10:27:56;;;;;;;33.13;17.37;;;;;;;-1.54;67.05;98463.41;1800073;79;21325;-59
2021/01/13 10:30:25;;;;;;;33.97;16.07;;;;;;;-1.51;67.26;98457.18;1800011;77;20945;-59
2021/01/13 10:32:55;;;;;;;44.37;16.83;;;;;;;-1.44;67.36;98452.64;1795995;77;21199;-59
2021/01/13 10:35:26;;;;;;;46.30;18.33;;;;;;;-1.37;67.28;98455.59;1794770;77;20953;-58
2021/01/13 10:37:55;;;;;;;38.93;15.57;;;;;;;-1.32;67.24;98439.19;1794536;77;21407;-58
2021/01/13 10:40:24;;;;;;;42.47;18.17;;;;;;;-1.31;66.95;98436.52;1793992;77;21195;-56
2021/01/13 10:42:53;;;;;;;41.10;16.53;;;;;;;-1.30;66.93;98429.47;1777919;79;21786;-56
2021/01/13 10:45:21;;;;;;;37.00;16.00;;;;;;;-1.28;66.85;98430.31;1772918;79;21204;-56
2021/01/13 10:47:57;;;;;;;37.20;16.73;;;;;;;-1.23;66.87;98424.47;1773005;78;21122;-56
2021/01/13 10:50:29;;;;;;;35.70;15.20;;;;;;;-1.20;66.76;98416.05;1777690;78;21095;-59
2021/01/13 10:53:00;;;;;;;37.33;16.97;;;;;;;-1.16;66.69;98415.05;1769717;78;21867;-59
2021/01/13 10:55:29;;;;;;;46.63;19.23;;;;;;;-1.18;66.56;98414.21;1773307;79;21182;-59
2021/01/13 10:57:56;;;;;;;37.63;18.60;;;;;;;-1.19;66.38;98405.00;1770476;79;22310;-59
2021/01/13 11:00:27;;;;;;;45.23;19.60;;;;;;;-1.21;66.47;98398.91;1770907;79;21644;-59
2021/01/13 11:02:59;;;;;;;32.77;15.63;;;;;;;-1.21;66.40;98404.19;1777887;79;21628;-59
2021/01/13 11:05:27;;;;;;;31.93;15.73;;;;;;;-1.21;66.24;98396.27;1773640;78;21507;-59
2021/01/13 11:07:56;;;;;;;39.67;16.63;;;;;;;-1.25;66.27;98384.03;1774295;79;20968;-59
2021/01/13 11:10:24;;;;;;;32.27;15.13;;;;;;;-1.25;66.35;98382.70;1774943;79;21933;-59
2021/01/13 11:13:08;;;;;;;33.93;16.33;;;;;;;-1.26;66.30;98375.69;1773242;79;21218;-59
2021/01/13 11:15:38;;;;;;;26.67;11.50;;;;;;;-1.28;66.41;98380.16;1768877;79;21494;-59
2021/01/13 11:18:09;;;;;;;30.00;13.73;;;;;;;-1.25;66.18;98376.11;1770237;79;21196;-59
2021/01/13 11:20:37;;;;;;;25.00;13.63;;;;;;;-1.27;66.01;98378.78;1699943;79;21175;-59
2021/01/13 11:23:06;;;;;;;30.07;12.90;;;;;;;-1.30;66.13;98370.95;1772879;79;21262;-59
2021/01/13 11:25:36;;;;;;;30.77;15.10;;;;;;;-1.25;66.19;98366.87;1772822;79;21131;-57
2021/01/13 11:28:08;;;;;;;31.37;13.53;;;;;;;-1.23;66.16;98361.11;1770281;79;21226;-57
2021/01/13 11:30:37;;;;;;;26.70;13.60;;;;;;;-1.21;65.83;98360.63;1774390;78;21123;-57
2021/01/13 11:33:07;;;;;;;36.80;14.63;;;;;;;-1.26;65.87;98348.84;1772583;79;21106;-57
2021/01/13 11:35:39;;;;;;;28.53;13.20;;;;;;;-1.26;65.75;98357.20;1771788;79;21184;-57
2021/01/13 11:38:43;;;;;;;30.77;12.63;;;;;;;-1.24;65.56;98351.00;1861863;74;27109;-58
2021/01/13 11:41:53;;;;;;;27.80;11.20;;;;;;;-1.32;65.60;98344.16;1836577;75;21227;-58
2021/01/13 11:44:48;;;;;;;31.47;10.97;;;;;;;-1.34;65.70;98345.51;1756968;79;23001;-58
2021/01/13 11:47:20;;;;;;;31.50;12.00;;;;;;;-1.33;65.59;98343.73;1747180;79;21741;-58
2021/01/13 11:49:59;;;;;;;36.87;14.30;;;;;;;-1.32;65.63;98345.48;1761645;79;21208;-58
2021/01/13 11:52:27;;;;;;;28.70;12.00;;;;;;;-1.30;65.56;98341.91;1764340;79;21170;-58
2021/01/13 11:54:55;;;;;;;30.60;12.37;;;;;;;-1.25;65.62;98343.11;1759179;79;21504;-58
2021/01/13 11:57:26;;;;;;;27.73;13.70;;;;;;;-1.21;65.46;98336.42;1760938;80;21394;-58
2021/01/13 12:00:15;;;;;;;28.13;12.77;;;;;;;-1.13;65.35;98339.32;1756436;79;21056;-58
2021/01/13 12:02:50;;;;;;;22.80;10.67;;;;;;;-1.09;65.26;98327.31;1762624;79;21313;-57
2021/01/13 12:05:31;;;;;;;17.77;9.50;;;;;;;-1.05;64.83;98328.12;1759674;79;21124;-57